PWSweather.com
Personal Weather Stations
Station Observations
KOHAVON11
Long Road Station, Avon, OH 44011

Long Road StationAvon, OH 44011

Lat: 41.437, Lon: -82.0477

Elevation: 686

Station Type: Davis Vantage Pro2

http://www.avon-weather.com

High Low Average
Temperature 63.8°F17.7°C 34.3°F1.3°C 51.9°F11.1°C
Dew Point 56.3°F13.5°C 24.3°F-4.3°C 45.1°F7.3°C
Winds 32.0 mph 51.5 kmh Calm Calm 13.0 mph SW20.9 kmh SW
Wind Gusts 44.0 mph70.8 kmh -- 24.0 mph38.6 kmh
Humidity 89% 63% 78%
Pressure 29.77 in1008.1 mb 29.36 in994.2 mb -
Precipitation 0.49 in12.4 mm - -
Hour Temp Dew Point Humidity Winds Wind Gusts Pressure Precip Precip Rate Daily Precip Total
12:01 AM 58.3°F14.6°C 53.7°F12.1°C 85% 18.0 mph S29.0 kmh S 27.0 mph43.5 kmh 29.71 in1006.1 mb 0.00 in0.0 mm 0.00 in0.0 mm 0.00 in0.0 mm
12:06 AM 58.4°F14.7°C 53.8°F12.1°C 85% 12.0 mph SW19.3 kmh SW 27.0 mph43.5 kmh 29.70 in1005.8 mb 0.00 in0.0 mm 0.00 in0.0 mm 0.00 in0.0 mm
12:11 AM 58.5°F14.7°C 53.9°F12.2°C 85% 17.0 mph S27.4 kmh S 27.0 mph43.5 kmh 29.70 in1005.8 mb 0.00 in0.0 mm 0.00 in0.0 mm 0.00 in0.0 mm
12:16 AM 58.5°F14.7°C 53.9°F12.2°C 85% 9.0 mph SSW14.5 kmh SSW 25.0 mph40.2 kmh 29.70 in1005.8 mb 0.00 in0.0 mm 0.00 in0.0 mm 0.00 in0.0 mm
12:21 AM 58.6°F14.8°C 54.0°F12.2°C 85% 15.0 mph S24.1 kmh S 25.0 mph40.2 kmh 29.69 in1005.4 mb 0.00 in0.0 mm 0.00 in0.0 mm 0.00 in0.0 mm
12:26 AM 58.6°F14.8°C 54.0°F12.2°C 85% 13.0 mph S20.9 kmh S 27.0 mph43.5 kmh 29.68 in1005.1 mb 0.00 in0.0 mm 0.00 in0.0 mm 0.00 in0.0 mm
12:31 AM 58.6°F14.8°C 54.0°F12.2°C 85% 15.0 mph S24.1 kmh S 27.0 mph43.5 kmh 29.66 in1004.4 mb 0.00 in0.0 mm 0.00 in0.0 mm 0.00 in0.0 mm
12:36 AM 58.6°F14.8°C 54.0°F12.2°C 85% 17.0 mph SSW27.4 kmh SSW 27.0 mph43.5 kmh 29.66 in1004.4 mb 0.00 in0.0 mm 0.00 in0.0 mm 0.00 in0.0 mm
12:41 AM 58.6°F14.8°C 54.0°F12.2°C 85% 18.0 mph S29.0 kmh S 27.0 mph43.5 kmh 29.65 in1004.1 mb 0.00 in0.0 mm 0.00 in0.0 mm 0.00 in0.0 mm
12:46 AM 58.6°F14.8°C 54.0°F12.2°C 85% 16.0 mph S25.7 kmh S 27.0 mph43.5 kmh 29.66 in1004.4 mb 0.00 in0.0 mm 0.00 in0.0 mm 0.00 in0.0 mm
12:51 AM 58.7°F14.8°C 54.5°F12.5°C 86% 14.0 mph S22.5 kmh S 27.0 mph43.5 kmh 29.65 in1004.1 mb 0.00 in0.0 mm 0.00 in0.0 mm 0.00 in0.0 mm
12:56 AM 58.8°F14.9°C 54.2°F12.3°C 85% 14.0 mph SSW22.5 kmh SSW 27.0 mph43.5 kmh 29.64 in1003.7 mb 0.00 in0.0 mm 0.00 in0.0 mm 0.00 in0.0 mm
01:01 AM 59.0°F15.0°C 54.4°F12.4°C 85% 20.0 mph S32.2 kmh S 30.0 mph48.3 kmh 29.64 in1003.7 mb 0.00 in0.0 mm 0.00 in0.0 mm 0.00 in0.0 mm
01:06 AM 59.1°F15.1°C 54.5°F12.5°C 85% 13.0 mph S20.9 kmh S 30.0 mph48.3 kmh 29.63 in1003.4 mb 0.00 in0.0 mm 0.00 in0.0 mm 0.00 in0.0 mm
01:11 AM 59.1°F15.1°C 54.5°F12.5°C 85% 11.0 mph S17.7 kmh S 30.0 mph48.3 kmh 29.64 in1003.7 mb 0.00 in0.0 mm 0.00 in0.0 mm 0.00 in0.0 mm
01:16 AM 59.4°F15.2°C 54.8°F12.7°C 85% 7.0 mph S11.3 kmh S 30.0 mph48.3 kmh 29.64 in1003.7 mb 0.00 in0.0 mm 0.00 in0.0 mm 0.00 in0.0 mm
01:21 AM 59.5°F15.3°C 54.9°F12.7°C 85% 15.0 mph S24.1 kmh S 29.0 mph46.7 kmh 29.64 in1003.7 mb 0.00 in0.0 mm 0.00 in0.0 mm 0.00 in0.0 mm
01:26 AM 59.6°F15.3°C 55.0°F12.8°C 85% 10.0 mph S16.1 kmh S 29.0 mph46.7 kmh 29.63 in1003.4 mb 0.00 in0.0 mm 0.00 in0.0 mm 0.00 in0.0 mm
01:31 AM 59.7°F15.4°C 55.1°F12.8°C 85% 16.0 mph S25.7 kmh S 24.0 mph38.6 kmh 29.62 in1003.0 mb 0.00 in0.0 mm 0.00 in0.0 mm 0.00 in0.0 mm
01:36 AM 59.7°F15.4°C 55.1°F12.8°C 85% 18.0 mph S29.0 kmh S 24.0 mph38.6 kmh 29.62 in1003.0 mb 0.00 in0.0 mm 0.00 in0.0 mm 0.00 in0.0 mm
01:41 AM 59.8°F15.4°C 55.2°F12.9°C 85% 11.0 mph SSW17.7 kmh SSW 23.0 mph37.0 kmh 29.61 in1002.7 mb 0.00 in0.0 mm 0.00 in0.0 mm 0.00 in0.0 mm
01:46 AM 59.9°F15.5°C 55.3°F12.9°C 85% 10.0 mph S16.1 kmh S 23.0 mph37.0 kmh 29.61 in1002.7 mb 0.00 in0.0 mm 0.00 in0.0 mm 0.00 in0.0 mm
01:51 AM 60.0°F15.6°C 55.1°F12.8°C 84% 16.0 mph SSW25.7 kmh SSW 23.0 mph37.0 kmh 29.62 in1003.0 mb 0.00 in0.0 mm 0.00 in0.0 mm 0.00 in0.0 mm
01:56 AM 60.1°F15.6°C 55.2°F12.9°C 84% 14.0 mph SSW22.5 kmh SSW 26.0 mph41.8 kmh 29.61 in1002.7 mb 0.00 in0.0 mm 0.00 in0.0 mm 0.00 in0.0 mm
02:01 AM 60.2°F15.7°C 55.3°F12.9°C 84% 26.0 mph S41.8 kmh S 26.0 mph41.8 kmh 29.61 in1002.7 mb 0.00 in0.0 mm 0.00 in0.0 mm 0.00 in0.0 mm
02:06 AM 60.3°F15.7°C 55.4°F13.0°C 84% 13.0 mph S20.9 kmh S 26.0 mph41.8 kmh 29.61 in1002.7 mb 0.00 in0.0 mm 0.00 in0.0 mm 0.00 in0.0 mm
02:11 AM 60.4°F15.8°C 55.5°F13.1°C 84% 11.0 mph S17.7 kmh S 26.0 mph41.8 kmh 29.60 in1002.4 mb 0.00 in0.0 mm 0.00 in0.0 mm 0.00 in0.0 mm
02:16 AM 60.4°F15.8°C 55.5°F13.1°C 84% 18.0 mph S29.0 kmh S 25.0 mph40.2 kmh 29.59 in1002.0 mb 0.00 in0.0 mm 0.00 in0.0 mm 0.00 in0.0 mm
02:21 AM 60.5°F15.8°C 55.6°F13.1°C 84% 15.0 mph S24.1 kmh S 25.0 mph40.2 kmh 29.61 in1002.7 mb 0.00 in0.0 mm 0.00 in0.0 mm 0.00 in0.0 mm
02:26 AM 60.7°F15.9°C 55.8°F13.2°C 84% 11.0 mph S17.7 kmh S 28.0 mph45.1 kmh 29.59 in1002.0 mb 0.00 in0.0 mm 0.00 in0.0 mm 0.00 in0.0 mm
02:31 AM 60.9°F16.1°C 55.9°F13.3°C 84% 18.0 mph S29.0 kmh S 28.0 mph45.1 kmh 29.58 in1001.7 mb 0.00 in0.0 mm 0.00 in0.0 mm 0.00 in0.0 mm
02:36 AM 61.1°F16.2°C 55.8°F13.2°C 83% 18.0 mph SSE29.0 kmh SSE 28.0 mph45.1 kmh 29.55 in1000.7 mb 0.00 in0.0 mm 0.00 in0.0 mm 0.00 in0.0 mm
02:41 AM 61.6°F16.4°C 56.3°F13.5°C 83% 21.0 mph S33.8 kmh S 29.0 mph46.7 kmh 29.55 in1000.7 mb 0.00 in0.0 mm 0.00 in0.0 mm 0.00 in0.0 mm
02:46 AM 62.2°F16.8°C 56.2°F13.4°C 81% 15.0 mph WSW24.1 kmh WSW 30.0 mph48.3 kmh 29.55 in1000.7 mb 0.00 in0.0 mm 0.00 in0.0 mm 0.00 in0.0 mm
02:51 AM 62.6°F17.0°C 55.1°F12.8°C 77% 16.0 mph S25.7 kmh S 30.0 mph48.3 kmh 29.54 in1000.3 mb 0.00 in0.0 mm 0.00 in0.0 mm 0.00 in0.0 mm
02:56 AM 63.1°F17.3°C 53.3°F11.8°C 71% 22.0 mph SSW35.4 kmh SSW 33.0 mph53.1 kmh 29.54 in1000.3 mb 0.00 in0.0 mm 0.00 in0.0 mm 0.00 in0.0 mm
03:01 AM 63.5°F17.5°C 52.9°F11.6°C 69% 11.0 mph SSW17.7 kmh SSW 33.0 mph53.1 kmh 29.55 in1000.7 mb 0.00 in0.0 mm 0.00 in0.0 mm 0.00 in0.0 mm
03:06 AM 63.8°F17.7°C 53.2°F11.8°C 69% 8.0 mph SW12.9 kmh SW 33.0 mph53.1 kmh 29.54 in1000.3 mb 0.00 in0.0 mm 0.00 in0.0 mm 0.00 in0.0 mm
03:11 AM 63.7°F17.6°C 53.1°F11.7°C 69% 12.0 mph SSW19.3 kmh SSW 33.0 mph53.1 kmh 29.55 in1000.7 mb 0.00 in0.0 mm 0.00 in0.0 mm 0.00 in0.0 mm
03:16 AM 63.8°F17.7°C 52.4°F11.3°C 67% 20.0 mph S32.2 kmh S 29.0 mph46.7 kmh 29.55 in1000.7 mb 0.00 in0.0 mm 0.00 in0.0 mm 0.00 in0.0 mm
03:21 AM 63.7°F17.6°C 51.9°F11.1°C 66% 14.0 mph S22.5 kmh S 29.0 mph46.7 kmh 29.55 in1000.7 mb 0.00 in0.0 mm 0.00 in0.0 mm 0.00 in0.0 mm
03:26 AM 63.5°F17.5°C 51.7°F10.9°C 66% 24.0 mph S38.6 kmh S 29.0 mph46.7 kmh 29.54 in1000.3 mb 0.00 in0.0 mm 0.00 in0.0 mm 0.00 in0.0 mm
03:31 AM 63.2°F17.3°C 51.4°F10.8°C 66% 17.0 mph SSW27.4 kmh SSW 29.0 mph46.7 kmh 29.53 in1000.0 mb 0.00 in0.0 mm 0.00 in0.0 mm 0.00 in0.0 mm
03:36 AM 62.8°F17.1°C 51.4°F10.8°C 67% 11.0 mph SSW17.7 kmh SSW 29.0 mph46.7 kmh 29.52 in999.7 mb 0.00 in0.0 mm 0.00 in0.0 mm 0.00 in0.0 mm
03:41 AM 62.5°F16.9°C 51.6°F10.9°C 68% 7.0 mph S11.3 kmh S 29.0 mph46.7 kmh 29.51 in999.3 mb 0.00 in0.0 mm 0.00 in0.0 mm 0.00 in0.0 mm
03:46 AM 62.2°F16.8°C 51.3°F10.7°C 68% 10.0 mph SSW16.1 kmh SSW 29.0 mph46.7 kmh 29.52 in999.7 mb 0.00 in0.0 mm 0.00 in0.0 mm 0.00 in0.0 mm
03:51 AM 62.1°F16.7°C 51.6°F10.9°C 69% 4.0 mph WSW6.4 kmh WSW 21.0 mph33.8 kmh 29.52 in999.7 mb 0.00 in0.0 mm 0.00 in0.0 mm 0.00 in0.0 mm
03:56 AM 61.9°F16.6°C 51.4°F10.8°C 69% 5.0 mph WNW8.0 kmh WNW 21.0 mph33.8 kmh 29.54 in1000.3 mb 0.00 in0.0 mm 0.00 in0.0 mm 0.00 in0.0 mm
04:01 AM 61.7°F16.5°C 51.6°F10.9°C 70% 3.0 mph W4.8 kmh W 20.0 mph32.2 kmh 29.56 in1001.0 mb 0.00 in0.0 mm 0.00 in0.0 mm 0.00 in0.0 mm
04:06 AM 61.5°F16.4°C 51.0°F10.6°C 69% 4.0 mph NW6.4 kmh NW 20.0 mph32.2 kmh 29.55 in1000.7 mb 0.00 in0.0 mm 0.00 in0.0 mm 0.00 in0.0 mm
04:11 AM 61.2°F16.2°C 50.3°F10.2°C 68% 3.0 mph NW4.8 kmh NW 10.0 mph16.1 kmh 29.54 in1000.3 mb 0.00 in0.0 mm 0.00 in0.0 mm 0.00 in0.0 mm
04:16 AM 60.9°F16.1°C 50.0°F10.0°C 68% 3.0 mph W4.8 kmh W 10.0 mph16.1 kmh 29.54 in1000.3 mb 0.00 in0.0 mm 0.00 in0.0 mm 0.00 in0.0 mm
04:21 AM 60.7°F15.9°C 50.2°F10.1°C 69% 3.0 mph WSW4.8 kmh WSW 9.0 mph14.5 kmh 29.53 in1000.0 mb 0.00 in0.0 mm 0.00 in0.0 mm 0.00 in0.0 mm
04:26 AM 60.5°F15.8°C 50.5°F10.3°C 70% 5.0 mph SW8.0 kmh SW 9.0 mph14.5 kmh 29.51 in999.3 mb 0.00 in0.0 mm 0.00 in0.0 mm 0.00 in0.0 mm
04:31 AM 60.3°F15.7°C 50.3°F10.2°C 70% 5.0 mph SSE8.0 kmh SSE 11.0 mph17.7 kmh 29.51 in999.3 mb 0.00 in0.0 mm 0.00 in0.0 mm 0.00 in0.0 mm
04:36 AM 60.3°F15.7°C 51.4°F10.8°C 73% 3.0 mph SSW4.8 kmh SSW 11.0 mph17.7 kmh 29.50 in999.0 mb 0.00 in0.0 mm 0.00 in0.0 mm 0.00 in0.0 mm
04:41 AM 60.3°F15.7°C 51.8°F11.0°C 74% 2.0 mph SW3.2 kmh SW 11.0 mph17.7 kmh 29.49 in998.6 mb 0.00 in0.0 mm 0.00 in0.0 mm 0.00 in0.0 mm
04:46 AM 60.2°F15.7°C 51.7°F10.9°C 74% Calm Calm 11.0 mph17.7 kmh 29.48 in998.3 mb 0.00 in0.0 mm 0.00 in0.0 mm 0.00 in0.0 mm
04:51 AM 60.1°F15.6°C 52.0°F11.1°C 75% Calm Calm -- 29.48 in998.3 mb 0.00 in0.0 mm 0.00 in0.0 mm 0.00 in0.0 mm
04:56 AM 60.1°F15.6°C 52.0°F11.1°C 75% Calm Calm -- 29.48 in998.3 mb 0.00 in0.0 mm 0.00 in0.0 mm 0.00 in0.0 mm
05:01 AM 59.9°F15.5°C 51.8°F11.0°C 75% Calm Calm -- 29.47 in998.0 mb 0.00 in0.0 mm 0.00 in0.0 mm 0.00 in0.0 mm
05:06 AM 59.7°F15.4°C 52.0°F11.1°C 76% Calm Calm -- 29.46 in997.6 mb 0.00 in0.0 mm 0.00 in0.0 mm 0.00 in0.0 mm
05:11 AM 59.6°F15.3°C 52.2°F11.2°C 77% Calm Calm -- 29.45 in997.3 mb 0.00 in0.0 mm 0.00 in0.0 mm 0.00 in0.0 mm
05:16 AM 59.3°F15.2°C 52.0°F11.1°C 77% Calm Calm -- 29.45 in997.3 mb 0.00 in0.0 mm 0.00 in0.0 mm 0.00 in0.0 mm
05:21 AM 59.3°F15.2°C 52.7°F11.5°C 79% 5.0 mph S8.0 kmh S 9.0 mph14.5 kmh 29.45 in997.3 mb 0.00 in0.0 mm 0.00 in0.0 mm 0.00 in0.0 mm
05:26 AM 59.4°F15.2°C 53.1°F11.7°C 80% 11.0 mph S17.7 kmh S 18.0 mph29.0 kmh 29.44 in997.0 mb 0.00 in0.0 mm 0.00 in0.0 mm 0.00 in0.0 mm
05:31 AM 60.0°F15.6°C 53.3°F11.8°C 79% 11.0 mph S17.7 kmh S 18.0 mph29.0 kmh 29.45 in997.3 mb 0.00 in0.0 mm 0.00 in0.0 mm 0.00 in0.0 mm
05:36 AM 60.9°F16.1°C 53.1°F11.7°C 76% 15.0 mph SSW24.1 kmh SSW 29.0 mph46.7 kmh 29.44 in997.0 mb 0.00 in0.0 mm 0.00 in0.0 mm 0.00 in0.0 mm
05:41 AM 61.6°F16.4°C 52.3°F11.3°C 72% 16.0 mph SSW25.7 kmh SSW 29.0 mph46.7 kmh 29.44 in997.0 mb 0.00 in0.0 mm 0.00 in0.0 mm 0.00 in0.0 mm
05:46 AM 62.0°F16.7°C 52.3°F11.3°C 71% 8.0 mph S12.9 kmh S 30.0 mph48.3 kmh 29.43 in996.6 mb 0.00 in0.0 mm 0.00 in0.0 mm 0.00 in0.0 mm
05:51 AM 62.3°F16.8°C 52.6°F11.4°C 71% 11.0 mph SSW17.7 kmh SSW 32.0 mph51.5 kmh 29.44 in997.0 mb 0.00 in0.0 mm 0.00 in0.0 mm 0.00 in0.0 mm
05:56 AM 62.3°F16.8°C 52.6°F11.4°C 71% 12.0 mph S19.3 kmh S 32.0 mph51.5 kmh 29.44 in997.0 mb 0.00 in0.0 mm 0.00 in0.0 mm 0.00 in0.0 mm
06:01 AM 62.2°F16.8°C 52.9°F11.6°C 72% 18.0 mph S29.0 kmh S 32.0 mph51.5 kmh 29.44 in997.0 mb 0.00 in0.0 mm 0.00 in0.0 mm 0.00 in0.0 mm
06:06 AM 62.1°F16.7°C 53.2°F11.8°C 73% 13.0 mph WNW20.9 kmh WNW 32.0 mph51.5 kmh 29.47 in998.0 mb 0.00 in0.0 mm 0.00 in0.0 mm 0.00 in0.0 mm
06:11 AM 59.6°F15.3°C 46.7°F8.2°C 63% 6.0 mph NW9.7 kmh NW 26.0 mph41.8 kmh 29.53 in1000.0 mb 0.97 in24.6 mm 11.64 in295.7 mm 0.02 in0.5 mm
06:16 AM 56.3°F13.5°C 45.3°F7.4°C 67% 13.0 mph NW20.9 kmh NW 26.0 mph41.8 kmh 29.54 in1000.3 mb 0.85 in21.6 mm 0.00 in0.0 mm 0.11 in2.8 mm
06:21 AM 53.7°F12.1°C 44.7°F7.1°C 72% 5.0 mph WNW8.0 kmh WNW 20.0 mph32.2 kmh 29.55 in1000.7 mb 0.49 in12.4 mm 0.00 in0.0 mm 0.17 in4.3 mm
06:26 AM 52.2°F11.2°C 45.1°F7.3°C 77% 9.0 mph WNW14.5 kmh WNW 20.0 mph32.2 kmh 29.56 in1001.0 mb 0.19 in4.8 mm 0.00 in0.0 mm 0.19 in4.8 mm
06:31 AM 51.4°F10.8°C 45.7°F7.6°C 81% 6.0 mph WNW9.7 kmh WNW 16.0 mph25.7 kmh 29.56 in1001.0 mb 0.19 in4.8 mm 0.00 in0.0 mm 0.21 in5.3 mm
06:36 AM 50.9°F10.5°C 45.9°F7.7°C 83% 4.0 mph NW6.4 kmh NW 16.0 mph25.7 kmh 29.57 in1001.4 mb 0.15 in3.8 mm 0.00 in0.0 mm 0.23 in5.8 mm
06:41 AM 50.5°F10.3°C 45.8°F7.7°C 84% 4.0 mph NW6.4 kmh NW 14.0 mph22.5 kmh 29.57 in1001.4 mb 0.12 in3.0 mm 0.00 in0.0 mm 0.23 in5.8 mm
06:46 AM 50.3°F10.2°C 45.9°F7.7°C 85% 2.0 mph WNW3.2 kmh WNW 14.0 mph22.5 kmh 29.56 in1001.0 mb 0.15 in3.8 mm 0.36 in9.1 mm 0.25 in6.4 mm
06:51 AM 50.1°F10.1°C 45.7°F7.6°C 85% 4.0 mph WNW6.4 kmh WNW 10.0 mph16.1 kmh 29.56 in1001.0 mb 0.08 in2.0 mm 0.00 in0.0 mm 0.25 in6.4 mm
06:56 AM 49.9°F9.9°C 45.8°F7.7°C 86% 2.0 mph WNW3.2 kmh WNW 10.0 mph16.1 kmh 29.57 in1001.4 mb 0.05 in1.3 mm 0.00 in0.0 mm 0.25 in6.4 mm
07:01 AM 49.8°F9.9°C 45.7°F7.6°C 86% Calm Calm 8.0 mph12.9 kmh 29.57 in1001.4 mb 0.00 in0.0 mm 0.00 in0.0 mm 0.25 in6.4 mm
07:06 AM 49.6°F9.8°C 45.6°F7.6°C 86% Calm Calm 4.0 mph6.4 kmh 29.57 in1001.4 mb 0.00 in0.0 mm 0.00 in0.0 mm 0.25 in6.4 mm
07:11 AM 49.5°F9.7°C 45.5°F7.5°C 86% Calm Calm -- 29.56 in1001.0 mb 0.00 in0.0 mm 0.00 in0.0 mm 0.26 in6.6 mm
07:16 AM 49.4°F9.7°C 45.7°F7.6°C 87% Calm Calm -- 29.56 in1001.0 mb 0.00 in0.0 mm 0.00 in0.0 mm 0.26 in6.6 mm
07:21 AM 49.3°F9.6°C 45.6°F7.6°C 87% Calm Calm -- 29.55 in1000.7 mb 0.00 in0.0 mm 0.00 in0.0 mm 0.26 in6.6 mm
07:26 AM 49.2°F9.6°C 45.5°F7.5°C 87% Calm Calm -- 29.54 in1000.3 mb 0.00 in0.0 mm 0.00 in0.0 mm 0.26 in6.6 mm
07:31 AM 49.2°F9.6°C 45.5°F7.5°C 87% Calm Calm -- 29.53 in1000.0 mb 0.00 in0.0 mm 0.00 in0.0 mm 0.27 in6.9 mm
07:36 AM 49.2°F9.6°C 45.5°F7.5°C 87% Calm Calm -- 29.54 in1000.3 mb 0.00 in0.0 mm 0.00 in0.0 mm 0.27 in6.9 mm
07:41 AM 49.2°F9.6°C 45.5°F7.5°C 87% Calm Calm -- 29.54 in1000.3 mb 0.00 in0.0 mm 0.00 in0.0 mm 0.27 in6.9 mm
07:46 AM 49.3°F9.6°C 45.9°F7.7°C 88% Calm Calm -- 29.54 in1000.3 mb 0.04 in1.0 mm 0.48 in12.2 mm 0.28 in7.1 mm
07:51 AM 49.3°F9.6°C 45.9°F7.7°C 88% Calm Calm 8.0 mph12.9 kmh 29.53 in1000.0 mb 0.08 in2.0 mm 0.48 in12.2 mm 0.28 in7.1 mm
07:56 AM 49.3°F9.6°C 45.9°F7.7°C 88% Calm Calm -- 29.53 in1000.0 mb 0.21 in5.3 mm 1.56 in39.6 mm 0.30 in7.6 mm
08:01 AM 49.4°F9.7°C 46.0°F7.8°C 88% Calm Calm -- 29.53 in1000.0 mb 0.12 in3.0 mm 0.00 in0.0 mm 0.31 in7.9 mm
08:06 AM 49.4°F9.7°C 46.0°F7.8°C 88% Calm Calm 2.0 mph3.2 kmh 29.52 in999.7 mb 0.09 in2.3 mm 0.00 in0.0 mm 0.32 in8.1 mm
08:11 AM 49.4°F9.7°C 46.0°F7.8°C 88% Calm Calm 2.0 mph3.2 kmh 29.51 in999.3 mb 0.14 in3.6 mm 0.60 in15.2 mm 0.33 in8.4 mm
08:16 AM 49.4°F9.7°C 46.0°F7.8°C 88% Calm Calm 2.0 mph3.2 kmh 29.51 in999.3 mb 0.12 in3.0 mm 0.00 in0.0 mm 0.34 in8.6 mm
08:21 AM 49.4°F9.7°C 46.0°F7.8°C 88% Calm Calm 3.0 mph4.8 kmh 29.50 in999.0 mb 0.11 in2.8 mm 0.00 in0.0 mm 0.35 in8.9 mm
08:26 AM 49.5°F9.7°C 46.4°F8.0°C 89% Calm Calm 7.0 mph11.3 kmh 29.50 in999.0 mb 0.22 in5.6 mm 1.32 in33.5 mm 0.36 in9.1 mm
08:31 AM 49.5°F9.7°C 46.4°F8.0°C 89% 5.0 mph SSE8.0 kmh SSE 9.0 mph14.5 kmh 29.50 in999.0 mb 0.12 in3.0 mm 0.00 in0.0 mm 0.37 in9.4 mm
08:36 AM 49.6°F9.8°C 46.5°F8.1°C 89% 4.0 mph SSW6.4 kmh SSW 11.0 mph17.7 kmh 29.50 in999.0 mb 0.09 in2.3 mm 0.00 in0.0 mm 0.38 in9.7 mm
08:41 AM 49.6°F9.8°C 46.5°F8.1°C 89% 1.0 mph SSE1.6 kmh SSE 5.0 mph8.0 kmh 29.49 in998.6 mb 0.11 in2.8 mm 0.24 in6.1 mm 0.39 in9.9 mm
08:46 AM 49.7°F9.8°C 46.6°F8.1°C 89% 11.0 mph SE17.7 kmh SE 11.0 mph17.7 kmh 29.48 in998.3 mb 0.09 in2.3 mm 0.00 in0.0 mm 0.39 in9.9 mm
08:51 AM 49.7°F9.8°C 46.6°F8.1°C 89% 9.0 mph SSE14.5 kmh SSE 14.0 mph22.5 kmh 29.48 in998.3 mb 0.16 in4.1 mm 0.84 in21.3 mm 0.41 in10.4 mm
08:56 AM 49.7°F9.8°C 46.6°F8.1°C 89% 7.0 mph S11.3 kmh S 14.0 mph22.5 kmh 29.48 in998.3 mb 0.09 in2.3 mm 0.00 in0.0 mm 0.41 in10.4 mm
09:01 AM 49.7°F9.8°C 46.6°F8.1°C 89% 15.0 mph SE24.1 kmh SE 15.0 mph24.1 kmh 29.47 in998.0 mb 0.06 in1.5 mm 0.00 in0.0 mm 0.42 in10.7 mm
09:06 AM 49.8°F9.9°C 46.7°F8.2°C 89% 10.0 mph SSE16.1 kmh SSE 15.0 mph24.1 kmh 29.46 in997.6 mb 0.06 in1.5 mm 0.00 in0.0 mm 0.42 in10.7 mm
09:11 AM 49.8°F9.9°C 46.7°F8.2°C 89% 13.0 mph SE20.9 kmh SE 16.0 mph25.7 kmh 29.45 in997.3 mb 0.06 in1.5 mm 0.00 in0.0 mm 0.43 in10.9 mm
09:16 AM 49.9°F9.9°C 46.8°F8.2°C 89% 11.0 mph S17.7 kmh S 17.0 mph27.4 kmh 29.46 in997.6 mb 0.06 in1.5 mm 0.00 in0.0 mm 0.43 in10.9 mm
09:21 AM 50.0°F10.0°C 46.9°F8.3°C 89% 9.0 mph S14.5 kmh S 17.0 mph27.4 kmh 29.45 in997.3 mb 0.05 in1.3 mm 0.00 in0.0 mm 0.43 in10.9 mm
09:26 AM 50.0°F10.0°C 46.9°F8.3°C 89% 13.0 mph S20.9 kmh S 17.0 mph27.4 kmh 29.45 in997.3 mb 0.04 in1.0 mm 0.00 in0.0 mm 0.43 in10.9 mm
09:31 AM 50.1°F10.1°C 47.0°F8.3°C 89% 11.0 mph SSE17.7 kmh SSE 18.0 mph29.0 kmh 29.45 in997.3 mb 0.00 in0.0 mm 0.00 in0.0 mm 0.43 in10.9 mm
09:36 AM 50.2°F10.1°C 47.1°F8.4°C 89% 11.0 mph S17.7 kmh S 18.0 mph29.0 kmh 29.45 in997.3 mb 0.00 in0.0 mm 0.00 in0.0 mm 0.43 in10.9 mm
09:41 AM 50.3°F10.2°C 47.2°F8.4°C 89% 10.0 mph SSW16.1 kmh SSW 18.0 mph29.0 kmh 29.45 in997.3 mb 0.00 in0.0 mm 0.00 in0.0 mm 0.43 in10.9 mm
09:46 AM 50.4°F10.2°C 47.3°F8.5°C 89% 10.0 mph SSE16.1 kmh SSE 18.0 mph29.0 kmh 29.45 in997.3 mb 0.00 in0.0 mm 0.00 in0.0 mm 0.43 in10.9 mm
09:51 AM 50.5°F10.3°C 47.4°F8.6°C 89% 10.0 mph SSW16.1 kmh SSW 15.0 mph24.1 kmh 29.45 in997.3 mb 0.00 in0.0 mm 0.00 in0.0 mm 0.43 in10.9 mm
09:56 AM 50.6°F10.3°C 47.5°F8.6°C 89% 10.0 mph S16.1 kmh S 16.0 mph25.7 kmh 29.44 in997.0 mb 0.00 in0.0 mm 0.00 in0.0 mm 0.43 in10.9 mm
10:01 AM 50.7°F10.4°C 47.6°F8.7°C 89% 13.0 mph S20.9 kmh S 17.0 mph27.4 kmh 29.45 in997.3 mb 0.00 in0.0 mm 0.00 in0.0 mm 0.43 in10.9 mm
10:06 AM 50.8°F10.4°C 47.7°F8.7°C 89% 9.0 mph S14.5 kmh S 17.0 mph27.4 kmh 29.45 in997.3 mb 0.00 in0.0 mm 0.00 in0.0 mm 0.43 in10.9 mm
10:11 AM 50.9°F10.5°C 47.8°F8.8°C 89% 14.0 mph SSW22.5 kmh SSW 17.0 mph27.4 kmh 29.45 in997.3 mb 0.00 in0.0 mm 0.00 in0.0 mm 0.43 in10.9 mm
10:16 AM 51.0°F10.6°C 47.9°F8.8°C 89% 11.0 mph SSE17.7 kmh SSE 17.0 mph27.4 kmh 29.44 in997.0 mb 0.00 in0.0 mm 0.00 in0.0 mm 0.43 in10.9 mm
10:21 AM 51.2°F10.7°C 48.1°F8.9°C 89% 8.0 mph SSW12.9 kmh SSW 18.0 mph29.0 kmh 29.45 in997.3 mb 0.00 in0.0 mm 0.00 in0.0 mm 0.43 in10.9 mm
10:26 AM 51.2°F10.7°C 48.1°F8.9°C 89% 7.0 mph S11.3 kmh S 18.0 mph29.0 kmh 29.45 in997.3 mb 0.00 in0.0 mm 0.00 in0.0 mm 0.43 in10.9 mm
10:31 AM 51.4°F10.8°C 48.3°F9.1°C 89% 10.0 mph SSW16.1 kmh SSW 20.0 mph32.2 kmh 29.45 in997.3 mb 0.00 in0.0 mm 0.00 in0.0 mm 0.43 in10.9 mm
10:36 AM 51.5°F10.8°C 48.3°F9.1°C 89% 10.0 mph SSW16.1 kmh SSW 20.0 mph32.2 kmh 29.45 in997.3 mb 0.00 in0.0 mm 0.00 in0.0 mm 0.43 in10.9 mm
10:41 AM 51.6°F10.9°C 48.4°F9.1°C 89% 10.0 mph SSW16.1 kmh SSW 20.0 mph32.2 kmh 29.44 in997.0 mb 0.00 in0.0 mm 0.00 in0.0 mm 0.43 in10.9 mm
10:46 AM 51.8°F11.0°C 48.6°F9.2°C 89% 15.0 mph S24.1 kmh S 22.0 mph35.4 kmh 29.43 in996.6 mb 0.00 in0.0 mm 0.00 in0.0 mm 0.43 in10.9 mm
10:51 AM 52.0°F11.1°C 48.8°F9.3°C 89% 18.0 mph S29.0 kmh S 22.0 mph35.4 kmh 29.43 in996.6 mb 0.00 in0.0 mm 0.00 in0.0 mm 0.43 in10.9 mm
10:56 AM 52.1°F11.2°C 48.9°F9.4°C 89% 12.0 mph SSW19.3 kmh SSW 22.0 mph35.4 kmh 29.44 in997.0 mb 0.00 in0.0 mm 0.00 in0.0 mm 0.43 in10.9 mm
11:01 AM 52.2°F11.2°C 49.0°F9.4°C 89% 14.0 mph SSW22.5 kmh SSW 22.0 mph35.4 kmh 29.44 in997.0 mb 0.00 in0.0 mm 0.00 in0.0 mm 0.43 in10.9 mm
11:06 AM 52.4°F11.3°C 48.9°F9.4°C 88% 17.0 mph SSW27.4 kmh SSW 20.0 mph32.2 kmh 29.44 in997.0 mb 0.00 in0.0 mm 0.00 in0.0 mm 0.43 in10.9 mm
11:11 AM 52.6°F11.4°C 49.1°F9.5°C 88% 20.0 mph S32.2 kmh S 21.0 mph33.8 kmh 29.43 in996.6 mb 0.00 in0.0 mm 0.00 in0.0 mm 0.43 in10.9 mm
11:16 AM 52.8°F11.6°C 49.3°F9.6°C 88% 18.0 mph SSW29.0 kmh SSW 26.0 mph41.8 kmh 29.42 in996.3 mb 0.00 in0.0 mm 0.00 in0.0 mm 0.43 in10.9 mm
11:21 AM 53.1°F11.7°C 49.6°F9.8°C 88% 18.0 mph SW29.0 kmh SW 26.0 mph41.8 kmh 29.42 in996.3 mb 0.00 in0.0 mm 0.00 in0.0 mm 0.43 in10.9 mm
11:26 AM 53.3°F11.8°C 49.5°F9.7°C 87% 7.0 mph SSW11.3 kmh SSW 26.0 mph41.8 kmh 29.41 in995.9 mb 0.00 in0.0 mm 0.00 in0.0 mm 0.43 in10.9 mm
11:31 AM 53.4°F11.9°C 49.6°F9.8°C 87% 16.0 mph S25.7 kmh S 26.0 mph41.8 kmh 29.43 in996.6 mb 0.00 in0.0 mm 0.00 in0.0 mm 0.43 in10.9 mm
11:36 AM 53.7°F12.1°C 49.9°F9.9°C 87% 15.0 mph S24.1 kmh S 24.0 mph38.6 kmh 29.41 in995.9 mb 0.00 in0.0 mm 0.00 in0.0 mm 0.43 in10.9 mm
11:41 AM 53.9°F12.2°C 49.8°F9.9°C 86% 13.0 mph SSW20.9 kmh SSW 24.0 mph38.6 kmh 29.41 in995.9 mb 0.00 in0.0 mm 0.00 in0.0 mm 0.43 in10.9 mm
11:46 AM 54.2°F12.3°C 50.1°F10.1°C 86% 12.0 mph S19.3 kmh S 22.0 mph35.4 kmh 29.42 in996.3 mb 0.00 in0.0 mm 0.00 in0.0 mm 0.43 in10.9 mm
11:51 AM 54.3°F12.4°C 49.8°F9.9°C 85% 11.0 mph SSW17.7 kmh SSW 22.0 mph35.4 kmh 29.41 in995.9 mb 0.00 in0.0 mm 0.00 in0.0 mm 0.43 in10.9 mm
11:56 AM 54.4°F12.4°C 49.9°F9.9°C 85% 12.0 mph SSW19.3 kmh SSW 26.0 mph41.8 kmh 29.39 in995.3 mb 0.00 in0.0 mm 0.00 in0.0 mm 0.43 in10.9 mm
12:01 PM 54.4°F12.4°C 49.9°F9.9°C 85% 10.0 mph S16.1 kmh S 26.0 mph41.8 kmh 29.36 in994.2 mb 0.00 in0.0 mm 0.00 in0.0 mm 0.43 in10.9 mm
12:06 PM 54.4°F12.4°C 49.9°F9.9°C 85% 15.0 mph S24.1 kmh S 26.0 mph41.8 kmh 29.36 in994.2 mb 0.00 in0.0 mm 0.00 in0.0 mm 0.43 in10.9 mm
12:11 PM 54.5°F12.5°C 49.7°F9.8°C 84% 16.0 mph SSW25.7 kmh SSW 26.0 mph41.8 kmh 29.39 in995.3 mb 0.00 in0.0 mm 0.00 in0.0 mm 0.43 in10.9 mm
12:16 PM 54.7°F12.6°C 49.9°F9.9°C 84% 7.0 mph SSW11.3 kmh SSW 25.0 mph40.2 kmh 29.36 in994.2 mb 0.00 in0.0 mm 0.00 in0.0 mm 0.43 in10.9 mm
12:21 PM 54.8°F12.7°C 50.0°F10.0°C 84% 16.0 mph SW25.7 kmh SW 25.0 mph40.2 kmh 29.37 in994.6 mb 0.00 in0.0 mm 0.00 in0.0 mm 0.43 in10.9 mm
12:26 PM 55.1°F12.8°C 50.3°F10.2°C 84% 18.0 mph SW29.0 kmh SW 24.0 mph38.6 kmh 29.41 in995.9 mb 0.00 in0.0 mm 0.00 in0.0 mm 0.43 in10.9 mm
12:31 PM 55.3°F12.9°C 50.2°F10.1°C 83% 15.0 mph WSW24.1 kmh WSW 24.0 mph38.6 kmh 29.41 in995.9 mb 0.00 in0.0 mm 0.00 in0.0 mm 0.43 in10.9 mm
12:36 PM 55.6°F13.1°C 50.4°F10.2°C 83% 16.0 mph SW25.7 kmh SW 24.0 mph38.6 kmh 29.42 in996.3 mb 0.00 in0.0 mm 0.00 in0.0 mm 0.43 in10.9 mm
12:41 PM 56.0°F13.3°C 50.5°F10.3°C 82% 10.0 mph S16.1 kmh S 25.0 mph40.2 kmh 29.41 in995.9 mb 0.00 in0.0 mm 0.00 in0.0 mm 0.43 in10.9 mm
12:46 PM 56.5°F13.6°C 51.0°F10.6°C 82% 20.0 mph SW32.2 kmh SW 25.0 mph40.2 kmh 29.41 in995.9 mb 0.00 in0.0 mm 0.00 in0.0 mm 0.43 in10.9 mm
12:51 PM 56.8°F13.8°C 50.6°F10.3°C 80% 14.0 mph SW22.5 kmh SW 25.0 mph40.2 kmh 29.41 in995.9 mb 0.00 in0.0 mm 0.00 in0.0 mm 0.43 in10.9 mm
12:56 PM 57.3°F14.1°C 50.7°F10.4°C 79% 19.0 mph SW30.6 kmh SW 25.0 mph40.2 kmh 29.42 in996.3 mb 0.00 in0.0 mm 0.00 in0.0 mm 0.43 in10.9 mm
01:01 PM 57.5°F14.2°C 50.6°F10.3°C 78% 19.0 mph SSW30.6 kmh SSW 25.0 mph40.2 kmh 29.41 in995.9 mb 0.00 in0.0 mm 0.00 in0.0 mm 0.43 in10.9 mm
01:06 PM 57.7°F14.3°C 50.4°F10.2°C 77% 13.0 mph SW20.9 kmh SW 25.0 mph40.2 kmh 29.41 in995.9 mb 0.00 in0.0 mm 0.00 in0.0 mm 0.43 in10.9 mm
01:11 PM 58.4°F14.7°C 50.4°F10.2°C 75% 24.0 mph SW38.6 kmh SW 25.0 mph40.2 kmh 29.40 in995.6 mb 0.00 in0.0 mm 0.00 in0.0 mm 0.43 in10.9 mm
01:16 PM 59.5°F15.3°C 50.7°F10.4°C 73% 20.0 mph SW32.2 kmh SW 28.0 mph45.1 kmh 29.40 in995.6 mb 0.00 in0.0 mm 0.00 in0.0 mm 0.43 in10.9 mm
01:21 PM 60.1°F15.6°C 50.9°F10.5°C 72% 19.0 mph SW30.6 kmh SW 28.0 mph45.1 kmh 29.40 in995.6 mb 0.00 in0.0 mm 0.00 in0.0 mm 0.43 in10.9 mm
01:26 PM 60.7°F15.9°C 50.6°F10.3°C 70% 26.0 mph SW41.8 kmh SW 29.0 mph46.7 kmh 29.40 in995.6 mb 0.00 in0.0 mm 0.00 in0.0 mm 0.43 in10.9 mm
01:31 PM 61.4°F16.3°C 51.3°F10.7°C 70% 25.0 mph SW40.2 kmh SW 29.0 mph46.7 kmh 29.40 in995.6 mb 0.00 in0.0 mm 0.00 in0.0 mm 0.43 in10.9 mm
01:36 PM 61.1°F16.2°C 49.4°F9.7°C 66% 29.0 mph SW46.7 kmh SW 32.0 mph51.5 kmh 29.40 in995.6 mb 0.00 in0.0 mm 0.00 in0.0 mm 0.43 in10.9 mm
01:41 PM 60.3°F15.7°C 49.5°F9.7°C 68% 19.0 mph SW30.6 kmh SW 32.0 mph51.5 kmh 29.40 in995.6 mb 0.00 in0.0 mm 0.00 in0.0 mm 0.43 in10.9 mm
01:46 PM 59.8°F15.4°C 49.0°F9.4°C 68% 13.0 mph WSW20.9 kmh WSW 37.0 mph59.5 kmh 29.40 in995.6 mb 0.00 in0.0 mm 0.00 in0.0 mm 0.43 in10.9 mm
01:51 PM 59.4°F15.2°C 49.0°F9.4°C 69% 20.0 mph WSW32.2 kmh WSW 37.0 mph59.5 kmh 29.40 in995.6 mb 0.00 in0.0 mm 0.00 in0.0 mm 0.43 in10.9 mm
01:56 PM 59.2°F15.1°C 48.8°F9.3°C 69% 19.0 mph SW30.6 kmh SW 37.0 mph59.5 kmh 29.40 in995.6 mb 0.00 in0.0 mm 0.00 in0.0 mm 0.43 in10.9 mm
02:01 PM 59.2°F15.1°C 49.2°F9.6°C 70% 25.0 mph SW40.2 kmh SW 37.0 mph59.5 kmh 29.40 in995.6 mb 0.00 in0.0 mm 0.00 in0.0 mm 0.43 in10.9 mm
02:06 PM 59.0°F15.0°C 49.0°F9.4°C 70% 29.0 mph WSW46.7 kmh WSW 33.0 mph53.1 kmh 29.40 in995.6 mb 0.00 in0.0 mm 0.00 in0.0 mm 0.43 in10.9 mm
02:11 PM 58.9°F14.9°C 48.9°F9.4°C 70% 11.0 mph WNW17.7 kmh WNW 33.0 mph53.1 kmh 29.40 in995.6 mb 0.00 in0.0 mm 0.00 in0.0 mm 0.43 in10.9 mm
02:16 PM 58.7°F14.8°C 49.1°F9.5°C 71% 19.0 mph SW30.6 kmh SW 29.0 mph46.7 kmh 29.40 in995.6 mb 0.00 in0.0 mm 0.00 in0.0 mm 0.43 in10.9 mm
02:21 PM 58.6°F14.8°C 49.0°F9.4°C 71% 15.0 mph WSW24.1 kmh WSW 29.0 mph46.7 kmh 29.40 in995.6 mb 0.00 in0.0 mm 0.00 in0.0 mm 0.43 in10.9 mm
02:26 PM 58.4°F14.7°C 49.2°F9.6°C 72% 27.0 mph WSW43.5 kmh WSW 28.0 mph45.1 kmh 29.40 in995.6 mb 0.00 in0.0 mm 0.00 in0.0 mm 0.43 in10.9 mm
02:31 PM 58.3°F14.6°C 49.1°F9.5°C 72% 15.0 mph SW24.1 kmh SW 32.0 mph51.5 kmh 29.40 in995.6 mb 0.00 in0.0 mm 0.00 in0.0 mm 0.43 in10.9 mm
02:36 PM 58.2°F14.6°C 49.0°F9.4°C 72% 21.0 mph WSW33.8 kmh WSW 32.0 mph51.5 kmh 29.40 in995.6 mb 0.00 in0.0 mm 0.00 in0.0 mm 0.43 in10.9 mm
02:41 PM 58.2°F14.6°C 49.0°F9.4°C 72% 19.0 mph SW30.6 kmh SW 32.0 mph51.5 kmh 29.40 in995.6 mb 0.00 in0.0 mm 0.00 in0.0 mm 0.43 in10.9 mm
02:46 PM 58.1°F14.5°C 49.3°F9.6°C 73% 18.0 mph SW29.0 kmh SW 32.0 mph51.5 kmh 29.40 in995.6 mb 0.00 in0.0 mm 0.00 in0.0 mm 0.43 in10.9 mm
02:51 PM 58.0°F14.4°C 49.2°F9.6°C 73% 19.0 mph SW30.6 kmh SW 32.0 mph51.5 kmh 29.40 in995.6 mb 0.00 in0.0 mm 0.00 in0.0 mm 0.43 in10.9 mm
02:56 PM 57.9°F14.4°C 49.1°F9.5°C 73% 28.0 mph SW45.1 kmh SW 33.0 mph53.1 kmh 29.40 in995.6 mb 0.00 in0.0 mm 0.00 in0.0 mm 0.43 in10.9 mm
03:01 PM 57.8°F14.3°C 49.0°F9.4°C 73% 18.0 mph SW29.0 kmh SW 33.0 mph53.1 kmh 29.40 in995.6 mb 0.00 in0.0 mm 0.00 in0.0 mm 0.43 in10.9 mm
03:06 PM 57.6°F14.2°C 49.6°F9.8°C 75% 15.0 mph WSW24.1 kmh WSW 33.0 mph53.1 kmh 29.40 in995.6 mb 0.00 in0.0 mm 0.00 in0.0 mm 0.43 in10.9 mm
03:11 PM 57.4°F14.1°C 49.8°F9.9°C 76% 13.0 mph SW20.9 kmh SW 33.0 mph53.1 kmh 29.40 in995.6 mb 0.00 in0.0 mm 0.00 in0.0 mm 0.43 in10.9 mm
03:16 PM 57.1°F13.9°C 49.8°F9.9°C 77% 29.0 mph WSW46.7 kmh WSW 29.0 mph46.7 kmh 29.40 in995.6 mb 0.00 in0.0 mm 0.00 in0.0 mm 0.43 in10.9 mm
03:21 PM 57.2°F14.0°C 49.9°F9.9°C 77% 18.0 mph SW29.0 kmh SW 29.0 mph46.7 kmh 29.40 in995.6 mb 0.00 in0.0 mm 0.00 in0.0 mm 0.43 in10.9 mm
03:26 PM 57.4°F14.1°C 49.8°F9.9°C 76% 25.0 mph WSW40.2 kmh WSW 32.0 mph51.5 kmh 29.40 in995.6 mb 0.00 in0.0 mm 0.00 in0.0 mm 0.43 in10.9 mm
03:31 PM 57.6°F14.2°C 49.6°F9.8°C 75% 18.0 mph WSW29.0 kmh WSW 32.0 mph51.5 kmh 29.39 in995.3 mb 0.00 in0.0 mm 0.00 in0.0 mm 0.43 in10.9 mm
03:36 PM 57.9°F14.4°C 49.5°F9.7°C 74% 18.0 mph WSW29.0 kmh WSW 32.0 mph51.5 kmh 29.40 in995.6 mb 0.00 in0.0 mm 0.00 in0.0 mm 0.43 in10.9 mm
03:41 PM 57.9°F14.4°C 49.1°F9.5°C 73% 16.0 mph WSW25.7 kmh WSW 32.0 mph51.5 kmh 29.40 in995.6 mb 0.00 in0.0 mm 0.00 in0.0 mm 0.43 in10.9 mm
03:46 PM 57.9°F14.4°C 49.1°F9.5°C 73% 15.0 mph SW24.1 kmh SW 25.0 mph40.2 kmh 29.40 in995.6 mb 0.00 in0.0 mm 0.00 in0.0 mm 0.43 in10.9 mm
03:51 PM 57.7°F14.3°C 49.3°F9.6°C 74% 25.0 mph WSW40.2 kmh WSW 26.0 mph41.8 kmh 29.40 in995.6 mb 0.00 in0.0 mm 0.00 in0.0 mm 0.43 in10.9 mm
03:56 PM 57.6°F14.2°C 49.2°F9.6°C 74% 19.0 mph WSW30.6 kmh WSW 26.0 mph41.8 kmh 29.40 in995.6 mb 0.00 in0.0 mm 0.00 in0.0 mm 0.43 in10.9 mm
04:01 PM 57.6°F14.2°C 48.8°F9.3°C 73% 22.0 mph WSW35.4 kmh WSW 32.0 mph51.5 kmh 29.40 in995.6 mb 0.00 in0.0 mm 0.00 in0.0 mm 0.43 in10.9 mm
04:06 PM 57.4°F14.1°C 48.6°F9.2°C 73% 17.0 mph SW27.4 kmh SW 32.0 mph51.5 kmh 29.40 in995.6 mb 0.00 in0.0 mm 0.00 in0.0 mm 0.43 in10.9 mm
04:11 PM 57.2°F14.0°C 48.8°F9.3°C 74% 13.0 mph WSW20.9 kmh WSW 32.0 mph51.5 kmh 29.40 in995.6 mb 0.00 in0.0 mm 0.00 in0.0 mm 0.43 in10.9 mm
04:16 PM 56.8°F13.8°C 49.2°F9.6°C 76% 12.0 mph WSW19.3 kmh WSW 32.0 mph51.5 kmh 29.41 in995.9 mb 0.00 in0.0 mm 0.00 in0.0 mm 0.43 in10.9 mm
04:21 PM 56.3°F13.5°C 49.1°F9.5°C 77% 18.0 mph W29.0 kmh W 31.0 mph49.9 kmh 29.41 in995.9 mb 0.00 in0.0 mm 0.00 in0.0 mm 0.44 in11.2 mm
04:26 PM 56.1°F13.4°C 48.9°F9.4°C 77% 16.0 mph WSW25.7 kmh WSW 31.0 mph49.9 kmh 29.41 in995.9 mb 0.00 in0.0 mm 0.00 in0.0 mm 0.44 in11.2 mm
04:31 PM 56.0°F13.3°C 48.8°F9.3°C 77% 13.0 mph WSW20.9 kmh WSW 31.0 mph49.9 kmh 29.41 in995.9 mb 0.00 in0.0 mm 0.00 in0.0 mm 0.44 in11.2 mm
04:36 PM 56.1°F13.4°C 48.5°F9.2°C 76% 20.0 mph W32.2 kmh W 31.0 mph49.9 kmh 29.42 in996.3 mb 0.00 in0.0 mm 0.00 in0.0 mm 0.44 in11.2 mm
04:41 PM 56.0°F13.3°C 46.5°F8.1°C 71% 16.0 mph WSW25.7 kmh WSW 31.0 mph49.9 kmh 29.42 in996.3 mb 0.00 in0.0 mm 0.00 in0.0 mm 0.44 in11.2 mm
04:46 PM 56.1°F13.4°C 46.3°F7.9°C 70% 21.0 mph W33.8 kmh W 34.0 mph54.7 kmh 29.42 in996.3 mb 0.00 in0.0 mm 0.00 in0.0 mm 0.44 in11.2 mm
04:51 PM 56.0°F13.3°C 45.8°F7.7°C 69% 17.0 mph WSW27.4 kmh WSW 34.0 mph54.7 kmh 29.42 in996.3 mb 0.00 in0.0 mm 0.00 in0.0 mm 0.44 in11.2 mm
04:56 PM 56.0°F13.3°C 45.4°F7.4°C 68% 22.0 mph W35.4 kmh W 34.0 mph54.7 kmh 29.43 in996.6 mb 0.00 in0.0 mm 0.00 in0.0 mm 0.44 in11.2 mm
05:01 PM 56.0°F13.3°C 44.6°F7.0°C 66% 23.0 mph W37.0 kmh W 38.0 mph61.2 kmh 29.43 in996.6 mb 0.00 in0.0 mm 0.00 in0.0 mm 0.44 in11.2 mm
05:06 PM 55.9°F13.3°C 44.1°F6.7°C 65% 14.0 mph W22.5 kmh W 38.0 mph61.2 kmh 29.43 in996.6 mb 0.00 in0.0 mm 0.00 in0.0 mm 0.44 in11.2 mm
05:11 PM 55.8°F13.2°C 44.0°F6.7°C 65% 11.0 mph WSW17.7 kmh WSW 38.0 mph61.2 kmh 29.43 in996.6 mb 0.00 in0.0 mm 0.00 in0.0 mm 0.44 in11.2 mm
05:16 PM 55.6°F13.1°C 44.2°F6.8°C 66% 10.0 mph WSW16.1 kmh WSW 38.0 mph61.2 kmh 29.44 in997.0 mb 0.00 in0.0 mm 0.00 in0.0 mm 0.44 in11.2 mm
05:21 PM 55.3°F12.9°C 43.9°F6.6°C 66% 32.0 mph W51.5 kmh W 32.0 mph51.5 kmh 29.45 in997.3 mb 0.00 in0.0 mm 0.00 in0.0 mm 0.44 in11.2 mm
05:26 PM 55.1°F12.8°C 43.3°F6.3°C 65% 24.0 mph W38.6 kmh W 44.0 mph70.8 kmh 29.45 in997.3 mb 0.00 in0.0 mm 0.00 in0.0 mm 0.44 in11.2 mm
05:31 PM 54.7°F12.6°C 42.9°F6.1°C 65% 15.0 mph WSW24.1 kmh WSW 44.0 mph70.8 kmh 29.45 in997.3 mb 0.00 in0.0 mm 0.00 in0.0 mm 0.44 in11.2 mm
05:36 PM 54.4°F12.4°C 43.0°F6.1°C 66% 25.0 mph WSW40.2 kmh WSW 44.0 mph70.8 kmh 29.46 in997.6 mb 0.00 in0.0 mm 0.00 in0.0 mm 0.44 in11.2 mm
05:41 PM 54.0°F12.2°C 42.7°F5.9°C 66% 21.0 mph WSW33.8 kmh WSW 44.0 mph70.8 kmh 29.46 in997.6 mb 0.00 in0.0 mm 0.00 in0.0 mm 0.44 in11.2 mm
05:46 PM 53.6°F12.0°C 41.9°F5.5°C 65% 23.0 mph WSW37.0 kmh WSW 35.0 mph56.3 kmh 29.47 in998.0 mb 0.00 in0.0 mm 0.00 in0.0 mm 0.44 in11.2 mm
05:51 PM 53.2°F11.8°C 41.5°F5.3°C 65% 28.0 mph WSW45.1 kmh WSW 35.0 mph56.3 kmh 29.47 in998.0 mb 0.00 in0.0 mm 0.00 in0.0 mm 0.44 in11.2 mm
05:56 PM 52.7°F11.5°C 41.4°F5.2°C 66% 27.0 mph WSW43.5 kmh WSW 44.0 mph70.8 kmh 29.47 in998.0 mb 0.00 in0.0 mm 0.00 in0.0 mm 0.44 in11.2 mm
06:01 PM 52.3°F11.3°C 41.1°F5.1°C 66% 16.0 mph WSW25.7 kmh WSW 44.0 mph70.8 kmh 29.48 in998.3 mb 0.00 in0.0 mm 0.00 in0.0 mm 0.44 in11.2 mm
06:06 PM 51.9°F11.1°C 41.1°F5.1°C 67% 25.0 mph W40.2 kmh W 44.0 mph70.8 kmh 29.49 in998.6 mb 0.00 in0.0 mm 0.00 in0.0 mm 0.44 in11.2 mm
06:11 PM 51.4°F10.8°C 41.0°F5.0°C 68% 28.0 mph WSW45.1 kmh WSW 44.0 mph70.8 kmh 29.49 in998.6 mb 0.00 in0.0 mm 0.00 in0.0 mm 0.44 in11.2 mm
06:16 PM 50.8°F10.4°C 41.2°F5.1°C 70% 18.0 mph SW29.0 kmh SW 38.0 mph61.2 kmh 29.50 in999.0 mb 0.00 in0.0 mm 0.00 in0.0 mm 0.44 in11.2 mm
06:21 PM 50.2°F10.1°C 41.4°F5.2°C 72% 22.0 mph W35.4 kmh W 38.0 mph61.2 kmh 29.50 in999.0 mb 0.00 in0.0 mm 0.00 in0.0 mm 0.44 in11.2 mm
06:26 PM 49.6°F9.8°C 41.2°F5.1°C 73% 18.0 mph WSW29.0 kmh WSW 36.0 mph57.9 kmh 29.50 in999.0 mb 0.00 in0.0 mm 0.00 in0.0 mm 0.44 in11.2 mm
06:31 PM 49.1°F9.5°C 41.4°F5.2°C 75% 26.0 mph WSW41.8 kmh WSW 41.0 mph66.0 kmh 29.50 in999.0 mb 0.00 in0.0 mm 0.00 in0.0 mm 0.44 in11.2 mm
06:36 PM 48.6°F9.2°C 41.3°F5.2°C 76% 21.0 mph WSW33.8 kmh WSW 41.0 mph66.0 kmh 29.52 in999.7 mb 0.00 in0.0 mm 0.00 in0.0 mm 0.44 in11.2 mm
06:41 PM 48.2°F9.0°C 40.5°F4.7°C 75% 9.0 mph WNW14.5 kmh WNW 41.0 mph66.0 kmh 29.52 in999.7 mb 0.00 in0.0 mm 0.00 in0.0 mm 0.44 in11.2 mm
06:46 PM 48.0°F8.9°C 40.3°F4.6°C 75% 10.0 mph WSW16.1 kmh WSW 41.0 mph66.0 kmh 29.52 in999.7 mb 0.00 in0.0 mm 0.00 in0.0 mm 0.44 in11.2 mm
06:51 PM 47.9°F8.8°C 39.9°F4.4°C 74% 11.0 mph SW17.7 kmh SW 25.0 mph40.2 kmh 29.53 in1000.0 mb 0.00 in0.0 mm 0.00 in0.0 mm 0.44 in11.2 mm
06:56 PM 47.7°F8.7°C 39.7°F4.3°C 74% 11.0 mph W17.7 kmh W 25.0 mph40.2 kmh 29.53 in1000.0 mb 0.00 in0.0 mm 0.00 in0.0 mm 0.44 in11.2 mm
07:01 PM 47.5°F8.6°C 38.8°F3.8°C 72% 22.0 mph SW35.4 kmh SW 25.0 mph40.2 kmh 29.53 in1000.0 mb 0.00 in0.0 mm 0.00 in0.0 mm 0.44 in11.2 mm
07:06 PM 47.2°F8.4°C 38.1°F3.4°C 71% 21.0 mph W33.8 kmh W 33.0 mph53.1 kmh 29.54 in1000.3 mb 0.00 in0.0 mm 0.00 in0.0 mm 0.44 in11.2 mm
07:11 PM 46.9°F8.3°C 37.5°F3.1°C 70% 15.0 mph SW24.1 kmh SW 33.0 mph53.1 kmh 29.54 in1000.3 mb 0.00 in0.0 mm 0.00 in0.0 mm 0.44 in11.2 mm
07:16 PM 46.7°F8.2°C 37.3°F2.9°C 70% 7.0 mph WSW11.3 kmh WSW 33.0 mph53.1 kmh 29.54 in1000.3 mb 0.00 in0.0 mm 0.00 in0.0 mm 0.44 in11.2 mm
07:21 PM 46.4°F8.0°C 37.0°F2.8°C 70% 16.0 mph SW25.7 kmh SW 33.0 mph53.1 kmh 29.55 in1000.7 mb 0.00 in0.0 mm 0.00 in0.0 mm 0.44 in11.2 mm
07:26 PM 46.1°F7.8°C 36.7°F2.6°C 70% 8.0 mph WSW12.9 kmh WSW 27.0 mph43.5 kmh 29.55 in1000.7 mb 0.00 in0.0 mm 0.00 in0.0 mm 0.44 in11.2 mm
07:31 PM 45.9°F7.7°C 36.5°F2.5°C 70% 14.0 mph W22.5 kmh W 27.0 mph43.5 kmh 29.55 in1000.7 mb 0.00 in0.0 mm 0.00 in0.0 mm 0.44 in11.2 mm
07:36 PM 45.7°F7.6°C 36.3°F2.4°C 70% 12.0 mph WSW19.3 kmh WSW 27.0 mph43.5 kmh 29.55 in1000.7 mb 0.00 in0.0 mm 0.00 in0.0 mm 0.44 in11.2 mm
07:41 PM 45.6°F7.6°C 36.6°F2.6°C 71% 8.0 mph W12.9 kmh W 27.0 mph43.5 kmh 29.55 in1000.7 mb 0.00 in0.0 mm 0.00 in0.0 mm 0.44 in11.2 mm
07:46 PM 45.5°F7.5°C 36.5°F2.5°C 71% 6.0 mph W9.7 kmh W 22.0 mph35.4 kmh 29.56 in1001.0 mb 0.00 in0.0 mm 0.00 in0.0 mm 0.44 in11.2 mm
07:51 PM 45.4°F7.4°C 36.8°F2.7°C 72% 12.0 mph WSW19.3 kmh WSW 25.0 mph40.2 kmh 29.56 in1001.0 mb 0.00 in0.0 mm 0.00 in0.0 mm 0.44 in11.2 mm
07:56 PM 45.3°F7.4°C 36.7°F2.6°C 72% 9.0 mph WSW14.5 kmh WSW 28.0 mph45.1 kmh 29.57 in1001.4 mb 0.00 in0.0 mm 0.00 in0.0 mm 0.44 in11.2 mm
08:01 PM 45.2°F7.3°C 36.6°F2.6°C 72% 16.0 mph SW25.7 kmh SW 28.0 mph45.1 kmh 29.57 in1001.4 mb 0.00 in0.0 mm 0.00 in0.0 mm 0.44 in11.2 mm
08:06 PM 45.1°F7.3°C 36.5°F2.5°C 72% 15.0 mph W24.1 kmh W 28.0 mph45.1 kmh 29.57 in1001.4 mb 0.00 in0.0 mm 0.00 in0.0 mm 0.44 in11.2 mm
08:11 PM 44.9°F7.2°C 36.7°F2.6°C 73% 15.0 mph WSW24.1 kmh WSW 28.0 mph45.1 kmh 29.57 in1001.4 mb 0.00 in0.0 mm 0.00 in0.0 mm 0.44 in11.2 mm
08:16 PM 44.6°F7.0°C 37.1°F2.8°C 75% 8.0 mph WSW12.9 kmh WSW 20.0 mph32.2 kmh 29.58 in1001.7 mb 0.00 in0.0 mm 0.00 in0.0 mm 0.44 in11.2 mm
08:21 PM 44.2°F6.8°C 37.4°F3.0°C 77% 7.0 mph SW11.3 kmh SW 20.0 mph32.2 kmh 29.58 in1001.7 mb 0.00 in0.0 mm 0.00 in0.0 mm 0.44 in11.2 mm
08:26 PM 43.7°F6.5°C 37.2°F2.9°C 78% 7.0 mph SW11.3 kmh SW 23.0 mph37.0 kmh 29.58 in1001.7 mb 0.00 in0.0 mm 0.00 in0.0 mm 0.45 in11.4 mm
08:31 PM 43.1°F6.2°C 37.0°F2.8°C 79% 11.0 mph WSW17.7 kmh WSW 30.0 mph48.3 kmh 29.59 in1002.0 mb 0.00 in0.0 mm 0.00 in0.0 mm 0.45 in11.4 mm
08:36 PM 42.7°F5.9°C 36.9°F2.7°C 80% 11.0 mph WSW17.7 kmh WSW 30.0 mph48.3 kmh 29.59 in1002.0 mb 0.00 in0.0 mm 0.00 in0.0 mm 0.45 in11.4 mm
08:41 PM 42.4°F5.8°C 36.9°F2.7°C 81% 13.0 mph WSW20.9 kmh WSW 30.0 mph48.3 kmh 29.59 in1002.0 mb 0.00 in0.0 mm 0.00 in0.0 mm 0.45 in11.4 mm
08:46 PM 42.2°F5.7°C 37.1°F2.8°C 82% 6.0 mph SW9.7 kmh SW 30.0 mph48.3 kmh 29.59 in1002.0 mb 0.00 in0.0 mm 0.00 in0.0 mm 0.45 in11.4 mm
08:51 PM 42.1°F5.6°C 37.0°F2.8°C 82% 13.0 mph W20.9 kmh W 22.0 mph35.4 kmh 29.59 in1002.0 mb 0.00 in0.0 mm 0.00 in0.0 mm 0.45 in11.4 mm
08:56 PM 41.9°F5.5°C 37.1°F2.8°C 83% 10.0 mph W16.1 kmh W 22.0 mph35.4 kmh 29.59 in1002.0 mb 0.00 in0.0 mm 0.00 in0.0 mm 0.45 in11.4 mm
09:01 PM 41.8°F5.4°C 37.0°F2.8°C 83% 22.0 mph W35.4 kmh W 23.0 mph37.0 kmh 29.60 in1002.4 mb 0.00 in0.0 mm 0.00 in0.0 mm 0.45 in11.4 mm
09:06 PM 41.7°F5.4°C 36.9°F2.7°C 83% 20.0 mph WSW32.2 kmh WSW 24.0 mph38.6 kmh 29.60 in1002.4 mb 0.00 in0.0 mm 0.00 in0.0 mm 0.45 in11.4 mm
09:11 PM 41.6°F5.3°C 36.8°F2.7°C 83% 7.0 mph W11.3 kmh W 27.0 mph43.5 kmh 29.60 in1002.4 mb 0.00 in0.0 mm 0.00 in0.0 mm 0.45 in11.4 mm
09:16 PM 41.5°F5.3°C 36.7°F2.6°C 83% 9.0 mph W14.5 kmh W 27.0 mph43.5 kmh 29.61 in1002.7 mb 0.00 in0.0 mm 0.00 in0.0 mm 0.45 in11.4 mm
09:21 PM 41.4°F5.2°C 36.6°F2.6°C 83% 8.0 mph WSW12.9 kmh WSW 27.0 mph43.5 kmh 29.61 in1002.7 mb 0.00 in0.0 mm 0.00 in0.0 mm 0.45 in11.4 mm
09:26 PM 41.3°F5.2°C 36.5°F2.5°C 83% 8.0 mph W12.9 kmh W 27.0 mph43.5 kmh 29.60 in1002.4 mb 0.00 in0.0 mm 0.00 in0.0 mm 0.45 in11.4 mm
09:31 PM 41.3°F5.2°C 36.5°F2.5°C 83% 8.0 mph W12.9 kmh W 22.0 mph35.4 kmh 29.61 in1002.7 mb 0.00 in0.0 mm 0.00 in0.0 mm 0.45 in11.4 mm
09:36 PM 41.1°F5.1°C 36.3°F2.4°C 83% 19.0 mph WSW30.6 kmh WSW 22.0 mph35.4 kmh 29.61 in1002.7 mb 0.00 in0.0 mm 0.00 in0.0 mm 0.45 in11.4 mm
09:41 PM 40.7°F4.8°C 35.9°F2.2°C 83% 8.0 mph WSW12.9 kmh WSW 25.0 mph40.2 kmh 29.62 in1003.0 mb 0.00 in0.0 mm 0.00 in0.0 mm 0.46 in11.7 mm
09:46 PM 40.4°F4.7°C 35.6°F2.0°C 83% 12.0 mph W19.3 kmh W 25.0 mph40.2 kmh 29.62 in1003.0 mb 0.00 in0.0 mm 0.00 in0.0 mm 0.46 in11.7 mm
09:51 PM 40.2°F4.6°C 35.4°F1.9°C 83% 16.0 mph SW25.7 kmh SW 25.0 mph40.2 kmh 29.62 in1003.0 mb 0.00 in0.0 mm 0.00 in0.0 mm 0.46 in11.7 mm
09:56 PM 40.1°F4.5°C 35.3°F1.8°C 83% 11.0 mph WSW17.7 kmh WSW 28.0 mph45.1 kmh 29.62 in1003.0 mb 0.00 in0.0 mm 0.00 in0.0 mm 0.46 in11.7 mm
10:01 PM 40.1°F4.5°C 35.3°F1.8°C 83% 13.0 mph WSW20.9 kmh WSW 28.0 mph45.1 kmh 29.62 in1003.0 mb 0.00 in0.0 mm 0.00 in0.0 mm 0.46 in11.7 mm
10:06 PM 40.1°F4.5°C 35.3°F1.8°C 83% 6.0 mph SW9.7 kmh SW 28.0 mph45.1 kmh 29.63 in1003.4 mb 0.00 in0.0 mm 0.00 in0.0 mm 0.46 in11.7 mm
10:11 PM 40.0°F4.4°C 34.9°F1.6°C 82% 25.0 mph WSW40.2 kmh WSW 28.0 mph45.1 kmh 29.64 in1003.7 mb 0.00 in0.0 mm 0.00 in0.0 mm 0.46 in11.7 mm
10:16 PM 40.1°F4.5°C 34.7°F1.5°C 81% 16.0 mph W25.7 kmh W 26.0 mph41.8 kmh 29.63 in1003.4 mb 0.00 in0.0 mm 0.00 in0.0 mm 0.46 in11.7 mm
10:21 PM 40.1°F4.5°C 34.4°F1.3°C 80% 7.0 mph WSW11.3 kmh WSW 26.0 mph41.8 kmh 29.64 in1003.7 mb 0.00 in0.0 mm 0.00 in0.0 mm 0.46 in11.7 mm
10:26 PM 40.1°F4.5°C 34.4°F1.3°C 80% 20.0 mph WSW32.2 kmh WSW 25.0 mph40.2 kmh 29.64 in1003.7 mb 0.00 in0.0 mm 0.00 in0.0 mm 0.46 in11.7 mm
10:31 PM 40.1°F4.5°C 34.1°F1.2°C 79% 18.0 mph WSW29.0 kmh WSW 25.0 mph40.2 kmh 29.64 in1003.7 mb 0.00 in0.0 mm 0.00 in0.0 mm 0.46 in11.7 mm
10:36 PM 40.1°F4.5°C 33.7°F0.9°C 78% 9.0 mph WNW14.5 kmh WNW 26.0 mph41.8 kmh 29.65 in1004.1 mb 0.00 in0.0 mm 0.00 in0.0 mm 0.46 in11.7 mm
10:41 PM 39.4°F4.1°C 33.1°F0.6°C 78% 7.0 mph WNW11.3 kmh WNW 26.0 mph41.8 kmh 29.66 in1004.4 mb 0.00 in0.0 mm 0.00 in0.0 mm 0.46 in11.7 mm
10:46 PM 38.5°F3.6°C 32.5°F0.3°C 79% 13.0 mph W20.9 kmh W 26.0 mph41.8 kmh 29.66 in1004.4 mb 0.00 in0.0 mm 0.00 in0.0 mm 0.47 in11.9 mm
10:51 PM 37.8°F3.2°C 32.5°F0.3°C 81% 7.0 mph W11.3 kmh W 26.0 mph41.8 kmh 29.66 in1004.4 mb 0.00 in0.0 mm 0.00 in0.0 mm 0.47 in11.9 mm
10:56 PM 37.2°F2.9°C 32.2°F0.1°C 82% 13.0 mph WSW20.9 kmh WSW 26.0 mph41.8 kmh 29.67 in1004.7 mb 0.00 in0.0 mm 0.00 in0.0 mm 0.47 in11.9 mm
11:01 PM 36.9°F2.7°C 32.2°F0.1°C 83% 14.0 mph SW22.5 kmh SW 26.0 mph41.8 kmh 29.67 in1004.7 mb 0.00 in0.0 mm 0.00 in0.0 mm 0.47 in11.9 mm
11:06 PM 36.6°F2.6°C 31.9°F-0.1°C 83% 7.0 mph WSW11.3 kmh WSW 22.0 mph35.4 kmh 29.67 in1004.7 mb 0.00 in0.0 mm 0.00 in0.0 mm 0.48 in12.2 mm
11:11 PM 36.4°F2.4°C 32.0°F0.0°C 84% 8.0 mph WSW12.9 kmh WSW 22.0 mph35.4 kmh 29.68 in1005.1 mb 0.00 in0.0 mm 0.00 in0.0 mm 0.48 in12.2 mm
11:16 PM 36.2°F2.3°C 31.8°F-0.1°C 84% 9.0 mph WSW14.5 kmh WSW 22.0 mph35.4 kmh 29.69 in1005.4 mb 0.05 in1.3 mm 0.60 in15.2 mm 0.49 in12.4 mm
11:21 PM 36.0°F2.2°C 31.9°F-0.1°C 85% 12.0 mph WSW19.3 kmh WSW 22.0 mph35.4 kmh 29.69 in1005.4 mb 0.05 in1.3 mm 0.00 in0.0 mm 0.49 in12.4 mm
11:26 PM 35.9°F2.2°C 31.8°F-0.1°C 85% 8.0 mph SW12.9 kmh SW 22.0 mph35.4 kmh 29.69 in1005.4 mb 0.05 in1.3 mm 0.00 in0.0 mm 0.49 in12.4 mm
11:31 PM 36.0°F2.2°C 31.9°F-0.1°C 85% 9.0 mph WSW14.5 kmh WSW 22.0 mph35.4 kmh 29.70 in1005.8 mb 0.00 in0.0 mm 0.00 in0.0 mm 0.49 in12.4 mm
11:36 PM 36.1°F2.3°C 32.0°F0.0°C 85% 15.0 mph WNW24.1 kmh WNW 22.0 mph35.4 kmh 29.70 in1005.8 mb 0.00 in0.0 mm 0.00 in0.0 mm 0.49 in12.4 mm
11:41 PM 36.0°F2.2°C 31.9°F-0.1°C 85% 7.0 mph W11.3 kmh W 26.0 mph41.8 kmh 29.70 in1005.8 mb 0.00 in0.0 mm 0.00 in0.0 mm 0.49 in12.4 mm
11:46 PM 36.0°F2.2°C 31.3°F-0.4°C 83% 13.0 mph W20.9 kmh W 26.0 mph41.8 kmh 29.70 in1005.8 mb 0.00 in0.0 mm 0.00 in0.0 mm 0.49 in12.4 mm
11:51 PM 35.9°F2.2°C 30.6°F-0.8°C 81% 18.0 mph NW29.0 kmh NW 26.0 mph41.8 kmh 29.71 in1006.1 mb 0.00 in0.0 mm 0.00 in0.0 mm 0.49 in12.4 mm
11:56 PM 35.8°F2.1°C 29.6°F-1.3°C 78% 13.0 mph WSW20.9 kmh WSW 26.0 mph41.8 kmh 29.72 in1006.4 mb 0.00 in0.0 mm 0.00 in0.0 mm 0.49 in12.4 mm